Upstream stations:
Downstream station:
SHEF ID: DVDO2 Red River at US 183 Bridge
STATION TYPE:
Regulating: Stage = 9.00, Flow = 10940
PRECIP STAGE RIV-FLOW VOLTAGE BAT-LOAD
in ft cfs volt volt
Ccp-Rev Ccp-Rev Ccp-Rev Ccp-Rev Ccp-Rev
(US/Central)
07/07 00:00 0.00 5.06 347 12.53 12.21
07/07 01:00 0.00 5.06 347 12.53 12.20
07/07 02:00 0.00 5.05 345 12.52 12.20
07/07 03:00 0.00 5.04 344 12.50 12.17
07/07 04:00 0.00 5.04 344 12.50 12.17
07/07 05:00 0.00 5.03 342 12.48 12.14
07/07 06:00 0.00 5.03 342 12.46 12.14
07/07 07:00 0.00 5.03 342 12.49 12.12
07/07 08:00 0.00 5.03 342 13.03 12.17
07/07 09:00 0.00 5.05 345 13.59 12.75
07/07 10:00 0.00 5.05 345 13.56 13.28
07/07 11:00 0.00 5.06 347 13.33 13.27
07/07 12:00 0.00 5.07 349 13.01 12.84
07/07 13:00 0.00 5.08 350 13.01 12.74
07/07 14:00 0.00 5.08 350 13.04 12.73
07/07 15:00 0.00 5.08 350 13.04 12.75
07/07 16:00 0.00 5.08 350 13.06 12.77
07/07 17:00 0.00 5.08 350 13.10 12.78
07/07 18:00 0.00 5.09 352 13.10 12.80
07/07 19:00 0.00 5.09 352 13.16 12.80
07/07 20:00 0.00 5.10 353 13.08 12.83
07/07 21:00 0.00 5.08 350 12.70 12.70
07/07 22:00 0.00 5.08 350 12.55 12.31
07/07 23:00 0.00 5.07 349 12.54 12.21